createdAt,value
2022-09-06T00:02:30.775Z,13.30
2022-09-06T00:04:57.791Z,9.43
2022-09-06T00:07:25.100Z,7.97
2022-09-06T00:09:52.598Z,9.30
2022-09-06T00:12:19.887Z,8.93
2022-09-06T00:14:47.025Z,10.57
2022-09-06T00:17:14.041Z,14.53
2022-09-06T00:19:41.028Z,11.17
2022-09-06T00:22:08.299Z,11.77
2022-09-06T00:24:37.226Z,8.67
2022-09-06T00:27:05.788Z,8.50
2022-09-06T00:29:33.075Z,7.77
2022-09-06T00:32:00.325Z,6.50
2022-09-06T00:34:28.104Z,10.30
2022-09-06T00:36:55.454Z,8.70
2022-09-06T00:39:22.619Z,13.63
2022-09-06T00:41:49.825Z,7.07
2022-09-06T00:44:17.067Z,8.10
2022-09-06T00:46:46.843Z,7.80
2022-09-06T00:49:28.406Z,9.47
2022-09-06T00:51:59.131Z,10.53
2022-09-06T00:54:26.667Z,9.73
2022-09-06T00:56:55.668Z,9.83
2022-09-06T00:59:26.004Z,9.47
2022-09-06T01:01:53.255Z,10.17
2022-09-06T01:04:20.525Z,6.50
2022-09-06T01:07:09.618Z,7.97
2022-09-06T01:10:02.106Z,9.67
2022-09-06T01:13:01.343Z,10.13
2022-09-06T01:15:51.120Z,11.30
2022-09-06T01:18:36.917Z,6.17
2022-09-06T01:21:38.363Z,9.70
2022-09-06T01:24:48.126Z,9.27
2022-09-06T01:27:56.927Z,6.77
2022-09-06T01:30:25.614Z,8.87
2022-09-06T01:33:16.759Z,11.20
2022-09-06T01:36:03.422Z,25.57
2022-09-06T01:38:30.656Z,20.27
2022-09-06T01:40:57.683Z,15.00
2022-09-06T01:43:29.248Z,27.23
2022-09-06T01:46:39.555Z,27.83
2022-09-06T01:49:42.446Z,18.77
2022-09-06T01:52:25.113Z,20.90
2022-09-06T01:55:32.699Z,20.40
2022-09-06T01:58:39.313Z,14.53
2022-09-06T02:01:28.215Z,16.60
2022-09-06T02:04:11.455Z,14.00
2022-09-06T02:06:50.564Z,18.90
2022-09-06T02:09:22.656Z,17.03
2022-09-06T02:11:54.767Z,18.13
2022-09-06T02:14:34.836Z,17.60
2022-09-06T02:17:04.293Z,13.30
2022-09-06T02:19:39.841Z,25.00
2022-09-06T02:22:10.386Z,18.77
2022-09-06T02:24:40.798Z,17.87
2022-09-06T02:27:08.406Z,22.27
2022-09-06T02:29:36.012Z,17.73
2022-09-06T02:32:18.523Z,17.33
2022-09-06T02:34:46.373Z,21.43
2022-09-06T02:37:15.318Z,22.30
2022-09-06T02:39:42.547Z,15.97
2022-09-06T02:42:11.721Z,21.17
2022-09-06T02:44:38.685Z,17.50
2022-09-06T02:47:05.885Z,18.40
2022-09-06T02:49:33.004Z,22.73
2022-09-06T02:51:59.959Z,28.00
2022-09-06T02:54:26.936Z,15.23
2022-09-06T02:56:53.966Z,27.10
2022-09-06T02:59:21.018Z,17.97
2022-09-06T03:01:48.053Z,26.30
2022-09-06T03:04:15.049Z,20.30
2022-09-06T03:06:42.025Z,16.37
2022-09-06T03:09:10.468Z,18.10
2022-09-06T03:11:38.196Z,20.90
2022-09-06T03:14:05.336Z,15.97
2022-09-06T03:16:32.462Z,17.90
2022-09-06T03:18:59.487Z,19.67
2022-09-06T03:21:26.597Z,16.57
2022-09-06T03:23:54.812Z,15.90
2022-09-06T03:26:22.024Z,14.80
2022-09-06T03:28:50.269Z,19.77
2022-09-06T03:31:17.596Z,16.43
2022-09-06T03:33:44.666Z,19.83
2022-09-06T03:36:11.835Z,19.77
2022-09-06T03:38:38.812Z,16.07
2022-09-06T03:41:06.012Z,24.23
2022-09-06T03:43:33.381Z,19.13
2022-09-06T03:46:00.404Z,14.77
2022-09-06T03:48:29.708Z,21.77
2022-09-06T03:50:58.485Z,17.27
2022-09-06T03:53:27.232Z,24.13
2022-09-06T03:55:55.860Z,15.57
2022-09-06T03:58:24.668Z,25.13
2022-09-06T04:01:00.992Z,15.57
2022-09-06T04:03:28.155Z,17.07
2022-09-06T04:05:55.145Z,22.27
2022-09-06T04:08:22.265Z,23.97
2022-09-06T04:10:57.286Z,26.77
2022-09-06T04:13:25.596Z,21.67
2022-09-06T04:15:52.929Z,24.13
2022-09-06T04:18:20.694Z,20.63
2022-09-06T04:20:52.490Z,20.83
2022-09-06T04:23:20.513Z,22.17
2022-09-06T04:25:52.174Z,17.43
2022-09-06T04:28:19.815Z,18.90
2022-09-06T04:31:03.940Z,22.50
2022-09-06T04:33:34.396Z,21.67
2022-09-06T04:36:03.503Z,20.27
2022-09-06T04:38:34.289Z,20.40
2022-09-06T04:41:01.358Z,23.13
2022-09-06T04:43:28.323Z,24.10
2022-09-06T04:45:55.518Z,22.70
2022-09-06T04:48:22.641Z,26.67
2022-09-06T04:50:49.690Z,22.73
2022-09-06T04:53:16.673Z,22.57
2022-09-06T04:55:43.859Z,15.03
2022-09-06T04:58:11.062Z,25.77
2022-09-06T05:00:38.989Z,21.87
2022-09-06T05:03:06.089Z,22.00
2022-09-06T05:05:33.099Z,27.73
2022-09-06T05:08:00.075Z,24.10
2022-09-06T05:10:27.309Z,24.53
2022-09-06T05:12:54.811Z,19.30
2022-09-06T05:15:23.455Z,25.73
2022-09-06T05:17:50.700Z,22.53
2022-09-06T05:20:17.979Z,26.27
2022-09-06T05:22:53.475Z,16.63
2022-09-06T05:25:20.888Z,22.27
2022-09-06T05:27:47.862Z,23.80
2022-09-06T05:30:15.601Z,19.97
2022-09-06T05:32:42.556Z,22.13
2022-09-06T05:35:09.646Z,17.53
2022-09-06T05:37:36.722Z,22.80
2022-09-06T05:40:04.068Z,15.93
2022-09-06T05:42:31.130Z,18.60
2022-09-06T05:44:58.352Z,17.10
2022-09-06T05:47:25.325Z,18.77
2022-09-06T05:49:53.644Z,15.20
2022-09-06T05:52:20.650Z,17.60
2022-09-06T05:54:47.630Z,20.00
2022-09-06T05:57:14.623Z,19.97
2022-09-06T05:59:41.671Z,13.57
2022-09-06T06:02:08.780Z,15.57
2022-09-06T06:04:36.046Z,17.67
2022-09-06T06:07:03.085Z,21.00
2022-09-06T06:09:30.072Z,20.07
2022-09-06T06:11:57.255Z,21.30
2022-09-06T06:14:24.295Z,20.60
2022-09-06T06:16:52.016Z,21.23
2022-09-06T06:19:19.060Z,20.93
2022-09-06T06:21:46.218Z,17.93
2022-09-06T06:24:13.415Z,23.40
2022-09-06T06:26:41.057Z,24.30
2022-09-06T06:29:09.716Z,18.40
2022-09-06T06:31:38.892Z,19.63
2022-09-06T06:34:06.253Z,20.50
2022-09-06T06:36:35.057Z,19.60
2022-09-06T06:39:04.602Z,17.23
2022-09-06T06:41:32.796Z,17.50
2022-09-06T06:44:02.074Z,16.43
2022-09-06T06:46:31.851Z,20.97
2022-09-06T06:48:59.434Z,18.17
2022-09-06T06:51:29.145Z,26.37
2022-09-06T06:54:00.054Z,18.67
2022-09-06T06:56:33.026Z,18.60
2022-09-06T06:59:02.852Z,15.07
2022-09-06T07:01:32.454Z,19.10
2022-09-06T07:04:00.009Z,21.00
2022-09-06T07:09:18.787Z,19.47
2022-09-06T07:11:47.662Z,18.23
2022-09-06T07:14:15.830Z,20.30
2022-09-06T07:16:43.453Z,15.97
2022-09-06T07:22:02.767Z,19.83
2022-09-06T07:24:32.349Z,21.97
2022-09-06T07:29:46.400Z,17.13
2022-09-06T07:32:13.504Z,14.83
2022-09-06T07:34:40.637Z,21.10
2022-09-06T07:37:07.605Z,21.03
2022-09-06T07:39:36.635Z,18.17
2022-09-06T07:42:04.151Z,18.80
2022-09-06T07:44:31.189Z,21.13
2022-09-06T07:55:19.392Z,26.33
2022-09-06T07:57:46.444Z,22.07
2022-09-06T08:00:13.791Z,23.67
2022-09-06T08:02:40.981Z,28.47
2022-09-06T08:10:42.834Z,29.30
2022-09-06T08:13:09.829Z,28.33
2022-09-06T08:15:36.823Z,21.90
2022-09-06T08:18:04.204Z,27.80
2022-09-06T08:20:31.215Z,16.93
2022-09-06T08:22:58.192Z,18.67
2022-09-06T08:25:25.884Z,21.90
2022-09-06T08:27:52.918Z,23.23
2022-09-06T08:30:20.552Z,18.03
2022-09-06T08:32:47.719Z,18.73
2022-09-06T08:35:14.846Z,13.07
2022-09-06T08:37:41.832Z,19.00
2022-09-06T08:40:09.600Z,20.57
2022-09-06T08:42:40.025Z,18.27
2022-09-06T08:45:12.577Z,19.63
2022-09-06T08:47:39.628Z,17.87
2022-09-06T08:50:07.680Z,24.13
2022-09-06T08:53:18.319Z,22.17
2022-09-06T08:56:13.292Z,20.40
2022-09-06T08:59:08.073Z,37.80
2022-09-06T09:01:59.160Z,22.33
2022-09-06T09:04:29.837Z,29.47
2022-09-06T09:07:03.779Z,22.23
2022-09-06T09:09:33.466Z,19.40
2022-09-06T09:12:01.531Z,20.43
2022-09-06T09:14:36.188Z,18.63
2022-09-06T09:17:09.974Z,17.10
2022-09-06T09:19:39.439Z,18.40
2022-09-06T09:22:06.708Z,19.27
2022-09-06T09:24:35.272Z,15.87
2022-09-06T09:27:13.541Z,15.50
2022-09-06T09:32:49.617Z,15.43
2022-09-06T09:35:40.789Z,12.93
2022-09-06T09:38:12.501Z,13.40
2022-09-06T09:40:48.912Z,15.93
2022-09-06T09:43:35.128Z,17.50
2022-09-06T09:46:30.547Z,13.87
2022-09-06T09:49:13.464Z,15.93
2022-09-06T09:51:46.201Z,16.00
2022-09-06T09:54:15.671Z,16.40
2022-09-06T09:56:53.087Z,14.73
2022-09-06T09:59:30.228Z,19.07
2022-09-06T10:02:03.120Z,16.97
2022-09-06T10:04:42.711Z,13.00
2022-09-06T10:07:15.855Z,15.63
2022-09-06T10:09:48.793Z,11.33
2022-09-06T10:12:32.042Z,10.17
2022-09-06T10:15:02.490Z,12.93
2022-09-06T10:17:53.401Z,14.73
2022-09-06T10:20:23.323Z,14.03
2022-09-06T10:26:51.297Z,12.13
2022-09-06T10:29:36.637Z,11.00
2022-09-06T10:32:42.040Z,12.80
2022-09-06T10:35:35.252Z,12.00
2022-09-06T10:38:38.675Z,15.13
2022-09-06T10:41:36.399Z,13.57
2022-09-06T10:44:29.122Z,10.17
2022-09-06T10:47:30.235Z,11.20
2022-09-06T10:50:00.431Z,16.73
2022-09-06T10:52:34.704Z,10.90
2022-09-06T10:55:05.151Z,14.00
2022-09-06T10:58:17.993Z,11.00
2022-09-06T11:00:47.954Z,10.13
2022-09-06T11:06:25.454Z,9.70
2022-09-06T11:09:09.171Z,12.53
2022-09-06T11:12:04.775Z,19.43
2022-09-06T11:14:33.523Z,13.40
2022-09-06T11:17:25.126Z,12.93
2022-09-06T11:20:21.719Z,13.30
2022-09-06T11:23:24.936Z,10.33
2022-09-06T11:26:47.381Z,8.87
2022-09-06T11:29:24.250Z,11.73
2022-09-06T11:34:44.255Z,14.33
2022-09-06T11:37:32.841Z,11.67
2022-09-06T11:40:35.662Z,12.07
2022-09-06T11:43:17.770Z,13.03
2022-09-06T11:45:53.778Z,13.10
2022-09-06T11:48:57.456Z,17.17
2022-09-06T11:51:53.946Z,16.40
2022-09-06T11:54:27.029Z,28.07
2022-09-06T11:57:12.725Z,15.50
2022-09-06T12:00:03.859Z,22.47
2022-09-06T12:02:51.161Z,23.67
2022-09-06T12:05:30.220Z,15.70
2022-09-06T12:08:16.356Z,11.67
2022-09-06T12:10:51.231Z,11.53
2022-09-06T12:13:48.731Z,5.43
2022-09-06T12:16:17.670Z,6.23
2022-09-06T12:19:03.062Z,4.60
2022-09-06T12:21:52.076Z,7.33
2022-09-06T12:25:01.851Z,9.07
2022-09-06T12:27:57.733Z,7.10
2022-09-06T12:30:37.579Z,3.83
2022-09-06T12:33:27.635Z,2.37
2022-09-06T12:36:12.006Z,5.07
2022-09-06T12:38:39.057Z,7.93
2022-09-06T12:41:08.278Z,7.60
2022-09-06T12:43:39.265Z,6.07
2022-09-06T12:46:10.141Z,11.10
2022-09-06T12:48:41.410Z,5.63
2022-09-06T12:51:20.259Z,6.30
2022-09-06T12:53:52.024Z,22.67
2022-09-06T12:56:22.406Z,3.63
2022-09-06T12:58:49.706Z,9.20
2022-09-06T13:01:30.093Z,3.37
2022-09-06T13:04:05.122Z,5.60
2022-09-06T13:06:38.423Z,7.77
2022-09-06T13:09:08.725Z,14.00
2022-09-06T13:11:38.930Z,2.57
2022-09-06T13:14:16.307Z,6.93
2022-09-06T13:16:46.465Z,7.07
2022-09-06T13:19:16.724Z,5.63
2022-09-06T13:21:46.344Z,4.90
2022-09-06T13:24:23.058Z,7.80
2022-09-06T13:26:51.470Z,5.67
2022-09-06T13:29:38.884Z,11.47
2022-09-06T13:32:14.606Z,7.43
2022-09-06T13:34:56.819Z,7.90
2022-09-06T13:37:29.125Z,4.83
2022-09-06T13:39:57.852Z,3.60
2022-09-06T13:42:37.282Z,2.80
2022-09-06T13:45:28.145Z,6.00
2022-09-06T13:48:07.816Z,5.53
2022-09-06T13:50:42.808Z,5.47
2022-09-06T13:53:10.593Z,7.87
2022-09-06T13:55:37.656Z,3.80
2022-09-06T13:58:04.705Z,12.37
2022-09-06T14:00:31.756Z,6.17
2022-09-06T14:02:59.093Z,5.73
2022-09-06T14:05:26.296Z,7.40
2022-09-06T14:07:53.788Z,6.20
2022-09-06T14:10:23.848Z,13.43
2022-09-06T14:12:53.392Z,8.47
2022-09-06T14:15:20.435Z,6.10
2022-09-06T14:17:47.553Z,4.77
2022-09-06T14:20:14.686Z,8.57
2022-09-06T14:22:41.703Z,5.03
2022-09-06T14:25:09.493Z,7.90
2022-09-06T14:27:36.710Z,8.43
2022-09-06T14:30:04.900Z,9.13
2022-09-06T14:32:31.943Z,5.90
2022-09-06T14:34:59.136Z,5.13
2022-09-06T14:37:26.082Z,4.10
2022-09-06T14:39:53.832Z,7.27
2022-09-06T14:42:24.576Z,7.00
2022-09-06T14:44:51.779Z,5.73
2022-09-06T14:47:18.779Z,6.40
2022-09-06T14:49:45.818Z,6.23
2022-09-06T14:52:12.901Z,4.80
2022-09-06T14:54:40.183Z,7.07
2022-09-06T14:57:07.347Z,5.67
2022-09-06T14:59:34.352Z,6.53
2022-09-06T15:02:01.437Z,6.80
2022-09-06T15:04:29.764Z,4.07
2022-09-06T15:06:56.794Z,6.13
2022-09-06T15:09:24.399Z,6.73
2022-09-06T15:11:52.741Z,5.97
2022-09-06T15:14:22.609Z,5.43
2022-09-06T15:16:55.841Z,5.20
2022-09-06T15:19:24.838Z,13.27
2022-09-06T15:21:52.017Z,7.27
2022-09-06T15:24:19.122Z,7.77
2022-09-06T15:26:46.449Z,9.33
2022-09-06T15:29:14.318Z,7.00
2022-09-06T15:31:42.580Z,9.53
2022-09-06T15:34:10.543Z,6.30
2022-09-06T15:36:37.695Z,4.87
2022-09-06T15:39:05.481Z,5.40
2022-09-06T15:41:35.761Z,9.70
2022-09-06T15:44:08.237Z,5.63
2022-09-06T15:46:58.320Z,6.73
2022-09-06T15:49:28.664Z,5.80
2022-09-06T15:51:58.416Z,4.60
2022-09-06T15:54:45.417Z,6.37
2022-09-06T15:57:13.690Z,9.17
2022-09-06T15:59:41.142Z,6.63
2022-09-06T16:02:09.136Z,8.60
2022-09-06T16:04:36.422Z,7.03
2022-09-06T16:07:03.867Z,9.50
2022-09-06T16:09:30.925Z,9.53
2022-09-06T16:11:57.976Z,10.67
2022-09-06T16:14:25.368Z,10.77
2022-09-06T16:16:54.210Z,8.63
2022-09-06T16:19:21.309Z,9.17
2022-09-06T16:21:48.299Z,7.20
2022-09-06T16:24:17.001Z,13.57
2022-09-06T16:26:46.400Z,7.17
2022-09-06T16:29:16.352Z,9.60
2022-09-06T16:31:43.427Z,8.77
2022-09-06T16:34:11.898Z,7.07
2022-09-06T16:36:39.389Z,4.60
2022-09-06T16:39:06.936Z,6.07
2022-09-06T16:41:45.834Z,7.17
2022-09-06T16:44:16.732Z,5.27
2022-09-06T16:46:49.459Z,7.97
2022-09-06T16:49:17.947Z,4.93
2022-09-06T16:51:46.004Z,4.17
2022-09-06T16:54:14.116Z,5.83
2022-09-06T16:56:41.563Z,9.70
2022-09-06T16:59:10.276Z,7.00
2022-09-06T17:01:41.587Z,4.63
2022-09-06T17:04:09.766Z,8.37
2022-09-06T17:06:44.405Z,12.03
2022-09-06T17:09:14.428Z,9.70
2022-09-06T17:11:41.525Z,10.83
2022-09-06T17:14:08.968Z,7.53
2022-09-06T17:16:54.472Z,8.37
2022-09-06T17:19:21.582Z,6.57
2022-09-06T17:21:48.685Z,7.53
2022-09-06T17:24:16.441Z,7.37
2022-09-06T17:26:43.633Z,6.93
2022-09-06T17:29:10.736Z,13.37
2022-09-06T17:31:38.256Z,9.07
2022-09-06T17:34:06.919Z,5.87
2022-09-06T17:36:34.870Z,7.53
2022-09-06T17:39:07.356Z,7.47
2022-09-06T17:41:39.867Z,6.87
2022-09-06T17:44:11.004Z,9.53
2022-09-06T17:46:47.749Z,6.27
2022-09-06T17:49:25.860Z,11.70
2022-09-06T17:51:52.921Z,9.23
2022-09-06T17:54:19.928Z,10.03
2022-09-06T17:56:47.071Z,9.30
2022-09-06T17:59:15.618Z,10.47
2022-09-06T18:01:44.722Z,8.20
2022-09-06T18:04:13.082Z,11.60
2022-09-06T18:06:43.487Z,11.67
2022-09-06T18:09:14.737Z,20.97
2022-09-06T18:11:45.604Z,9.07
2022-09-06T18:14:18.247Z,13.00
2022-09-06T18:16:47.266Z,10.70
2022-09-06T18:19:15.652Z,16.90
2022-09-06T18:21:42.947Z,15.97
2022-09-06T18:24:10.894Z,11.73
2022-09-06T18:26:38.157Z,10.53
2022-09-06T18:29:13.227Z,14.17
2022-09-06T18:31:41.064Z,12.97
2022-09-06T18:34:08.905Z,14.10
2022-09-06T18:36:36.818Z,16.97
2022-09-06T18:39:05.057Z,13.90
2022-09-06T18:41:54.113Z,16.17
2022-09-06T18:44:21.739Z,12.60
2022-09-06T18:46:49.084Z,14.23
2022-09-06T18:49:17.518Z,13.17
2022-09-06T18:51:45.689Z,14.60
2022-09-06T18:54:13.659Z,21.27
2022-09-06T18:56:41.284Z,21.90
2022-09-06T18:59:08.661Z,19.87
2022-09-06T19:01:36.630Z,12.07
2022-09-06T19:04:04.743Z,9.93
2022-09-06T19:06:33.803Z,12.43
2022-09-06T19:09:13.154Z,10.67
2022-09-06T19:11:42.748Z,11.60
2022-09-06T19:14:10.192Z,13.57
2022-09-06T19:16:37.761Z,11.20
2022-09-06T19:19:07.092Z,10.43
2022-09-06T19:21:39.204Z,25.43
2022-09-06T19:24:10.409Z,23.77
2022-09-06T19:26:39.940Z,17.30
2022-09-06T19:29:11.167Z,14.70
2022-09-06T19:31:38.632Z,18.87
2022-09-06T19:34:06.252Z,15.77
2022-09-06T19:36:33.751Z,10.40
2022-09-06T19:39:09.735Z,13.00
2022-09-06T19:41:38.950Z,18.27
2022-09-06T19:44:08.646Z,14.43
2022-09-06T19:46:36.522Z,15.77
2022-09-06T19:49:05.042Z,13.47
2022-09-06T19:51:44.022Z,13.83
2022-09-06T19:54:11.093Z,6.03
2022-09-06T19:56:38.605Z,9.43
2022-09-06T19:59:07.985Z,13.90
2022-09-06T20:01:37.616Z,16.87
2022-09-06T20:04:07.085Z,15.70
2022-09-06T20:06:34.675Z,7.77
2022-09-06T20:09:03.692Z,6.13
2022-09-06T20:11:33.705Z,9.10
2022-09-06T20:14:01.411Z,9.07
2022-09-06T20:16:30.466Z,14.67
2022-09-06T20:18:59.077Z,10.03
2022-09-06T20:21:29.904Z,10.20
2022-09-06T20:23:59.185Z,9.10
2022-09-06T20:26:27.770Z,7.60
2022-09-06T20:29:02.526Z,11.00
2022-09-06T20:31:31.380Z,9.63
2022-09-06T20:34:04.326Z,10.50
2022-09-06T20:36:31.576Z,8.07
2022-09-06T20:38:58.560Z,10.43
2022-09-06T20:41:26.950Z,9.80
2022-09-06T20:43:56.207Z,9.33
2022-09-06T20:46:28.969Z,12.30
2022-09-06T20:48:58.049Z,10.07
2022-09-06T20:51:25.855Z,8.60
2022-09-06T20:54:00.297Z,8.10
2022-09-06T20:56:36.598Z,11.07
2022-09-06T20:59:09.921Z,14.67
2022-09-06T21:01:40.945Z,15.87
2022-09-06T21:04:09.722Z,13.37
2022-09-06T21:06:38.137Z,14.60
2022-09-06T21:09:10.727Z,15.50
2022-09-06T21:11:38.285Z,15.83
2022-09-06T21:14:06.071Z,15.97
2022-09-06T21:16:33.340Z,19.50
2022-09-06T21:19:02.895Z,12.73
2022-09-06T21:21:31.974Z,19.13
2022-09-06T21:24:01.164Z,19.00
2022-09-06T21:26:28.765Z,17.33
2022-09-06T21:28:56.149Z,17.43
2022-09-06T21:31:29.744Z,16.33
2022-09-06T21:33:58.661Z,17.03
2022-09-06T21:36:29.981Z,21.17
2022-09-06T21:38:59.541Z,16.93
2022-09-06T21:41:27.549Z,14.03
2022-09-06T21:43:59.396Z,20.23
2022-09-06T21:46:32.500Z,17.60
2022-09-06T21:49:02.716Z,21.23
2022-09-06T21:51:30.101Z,17.23
2022-09-06T21:53:57.970Z,22.47
2022-09-06T21:56:25.524Z,22.20
2022-09-06T21:58:57.164Z,23.83
2022-09-06T22:01:29.652Z,18.67
2022-09-06T22:03:56.867Z,16.37
2022-09-06T22:06:26.113Z,19.37
2022-09-06T22:08:54.037Z,17.73
2022-09-06T22:11:26.577Z,15.40
2022-09-06T22:13:54.350Z,11.53
2022-09-06T22:16:22.654Z,12.10
2022-09-06T22:18:51.512Z,16.60
2022-09-06T22:21:21.226Z,15.07
2022-09-06T22:23:56.337Z,12.63
2022-09-06T22:26:24.687Z,12.27
2022-09-06T22:29:00.499Z,16.97
2022-09-06T22:31:29.464Z,12.60
2022-09-06T22:33:57.291Z,12.93
2022-09-06T22:36:25.594Z,12.90
2022-09-06T22:38:57.289Z,13.87
2022-09-06T22:41:29.263Z,16.67
2022-09-06T22:43:56.604Z,16.83
2022-09-06T22:46:23.966Z,22.67
2022-09-06T22:48:51.106Z,11.63
2022-09-06T22:51:18.349Z,21.80
2022-09-06T22:53:45.539Z,19.90
2022-09-06T22:56:12.670Z,14.57
2022-09-06T22:58:39.741Z,14.83
2022-09-06T23:01:12.512Z,18.33
2022-09-06T23:03:40.738Z,18.80
2022-09-06T23:06:08.117Z,24.47
2022-09-06T23:08:36.795Z,20.80
2022-09-06T23:11:15.112Z,26.87
2022-09-06T23:13:47.088Z,25.20
2022-09-06T23:16:17.137Z,27.57
2022-09-06T23:18:44.769Z,29.60
2022-09-06T23:21:15.623Z,21.53
2022-09-06T23:23:43.438Z,24.00
2022-09-06T23:26:12.962Z,23.87
2022-09-06T23:28:39.991Z,26.20
2022-09-06T23:31:09.110Z,22.67
2022-09-06T23:33:37.393Z,20.33
2022-09-06T23:36:05.564Z,21.17
2022-09-06T23:38:34.087Z,23.63
2022-09-06T23:41:01.186Z,24.23
2022-09-06T23:43:28.537Z,33.50
2022-09-06T23:45:55.684Z,24.40
2022-09-06T23:48:22.993Z,24.10
2022-09-06T23:50:50.244Z,21.73
2022-09-06T23:53:18.233Z,19.37
2022-09-06T23:55:45.302Z,20.93
2022-09-06T23:58:12.832Z,14.53
